createdAt,value
2022-10-07T00:00:51.499Z,3.13
2022-10-07T00:02:54.528Z,2.87
2022-10-07T00:04:57.431Z,3.03
2022-10-07T00:07:01.803Z,3.10
2022-10-07T00:09:05.494Z,3.20
2022-10-07T00:11:10.377Z,2.40
2022-10-07T00:13:14.111Z,2.77
2022-10-07T00:15:17.102Z,2.97
2022-10-07T00:17:20.113Z,3.27
2022-10-07T00:19:23.236Z,3.57
2022-10-07T00:21:27.390Z,2.70
2022-10-07T00:23:31.672Z,2.67
2022-10-07T00:25:37.051Z,3.20
2022-10-07T00:27:40.060Z,3.33
2022-10-07T00:29:43.082Z,2.80
2022-10-07T00:31:45.989Z,2.90
2022-10-07T00:33:49.131Z,2.87
2022-10-07T00:35:52.184Z,3.17
2022-10-07T00:37:55.467Z,2.27
2022-10-07T00:39:59.870Z,2.57
2022-10-07T00:42:02.813Z,2.23
2022-10-07T00:44:35.614Z,2.10
2022-10-07T00:46:41.268Z,2.07
2022-10-07T00:48:46.828Z,2.40
2022-10-07T00:50:50.677Z,2.83
2022-10-07T00:52:56.405Z,2.40
2022-10-07T00:55:03.937Z,2.43
2022-10-07T00:57:07.131Z,2.70
2022-10-07T00:59:10.534Z,2.23
2022-10-07T01:01:13.550Z,2.20
2022-10-07T01:03:17.593Z,3.43
2022-10-07T01:05:21.370Z,2.00
2022-10-07T01:07:24.518Z,2.20
2022-10-07T01:09:27.581Z,2.43
2022-10-07T01:11:43.487Z,2.00
2022-10-07T01:13:55.598Z,2.27
2022-10-07T01:16:07.304Z,1.77
2022-10-07T01:18:15.357Z,2.23
2022-10-07T01:20:26.573Z,3.43
2022-10-07T01:22:38.081Z,3.10
2022-10-07T01:24:44.466Z,2.57
2022-10-07T01:26:54.173Z,2.40
2022-10-07T01:28:59.348Z,2.87
2022-10-07T01:31:07.017Z,2.17
2022-10-07T01:33:13.729Z,2.20
2022-10-07T01:35:19.570Z,1.93
2022-10-07T01:37:23.908Z,2.13
2022-10-07T01:39:31.605Z,2.50
2022-10-07T01:41:35.741Z,2.77
2022-10-07T01:43:40.832Z,1.90
2022-10-07T01:45:44.167Z,1.87
2022-10-07T01:47:47.384Z,2.33
2022-10-07T01:49:50.678Z,2.20
2022-10-07T01:52:09.518Z,2.77
2022-10-07T01:54:24.575Z,2.50
2022-10-07T01:56:51.141Z,2.90
2022-10-07T01:59:07.976Z,2.70
2022-10-07T02:01:19.087Z,2.37
2022-10-07T02:03:33.026Z,2.30
2022-10-07T02:05:41.896Z,2.23
2022-10-07T02:07:53.704Z,2.10
2022-10-07T02:10:00.425Z,3.27
2022-10-07T02:12:08.832Z,2.10
2022-10-07T02:14:15.903Z,3.10
2022-10-07T02:16:21.087Z,2.80
2022-10-07T02:18:24.117Z,2.80
2022-10-07T02:20:32.025Z,2.07
2022-10-07T02:22:37.305Z,2.17
2022-10-07T02:24:41.901Z,2.60
2022-10-07T02:26:46.873Z,2.27
2022-10-07T02:28:51.393Z,2.43
2022-10-07T02:30:58.417Z,3.30
2022-10-07T02:33:04.351Z,2.73
2022-10-07T02:35:13.144Z,2.80
2022-10-07T02:37:20.508Z,2.60
2022-10-07T02:39:24.308Z,2.10
2022-10-07T02:41:36.313Z,3.33
2022-10-07T02:43:48.691Z,2.67
2022-10-07T02:45:58.859Z,3.00
2022-10-07T02:48:05.001Z,1.90
2022-10-07T02:50:11.354Z,2.40
2022-10-07T02:52:16.750Z,2.13
2022-10-07T02:54:25.980Z,1.77
2022-10-07T02:56:29.471Z,2.17
2022-10-07T02:58:32.389Z,2.67
2022-10-07T03:00:38.820Z,2.33
2022-10-07T03:02:48.576Z,1.90
2022-10-07T03:04:51.746Z,2.30
2022-10-07T03:06:55.614Z,2.50
2022-10-07T03:09:00.308Z,2.87
2022-10-07T03:11:05.351Z,2.07
2022-10-07T03:13:08.374Z,2.47
2022-10-07T03:15:14.623Z,2.67
2022-10-07T03:17:18.061Z,2.63
2022-10-07T03:19:22.726Z,3.27
2022-10-07T03:21:28.959Z,2.43
2022-10-07T03:23:34.105Z,3.07
2022-10-07T03:25:37.203Z,2.20
2022-10-07T03:27:42.628Z,1.93
2022-10-07T03:29:46.058Z,2.63
2022-10-07T03:31:49.501Z,2.20
2022-10-07T03:33:52.518Z,2.63
2022-10-07T03:35:57.872Z,2.97
2022-10-07T03:38:01.128Z,2.27
2022-10-07T03:40:06.442Z,2.00
2022-10-07T03:42:09.372Z,2.50
2022-10-07T03:44:14.574Z,2.47
2022-10-07T03:46:19.642Z,3.53
2022-10-07T03:48:23.239Z,3.00
2022-10-07T03:50:26.917Z,3.30
2022-10-07T03:52:31.233Z,3.10
2022-10-07T03:54:34.276Z,3.47
2022-10-07T03:56:37.298Z,3.10
2022-10-07T03:58:40.199Z,3.03
2022-10-07T04:00:45.913Z,2.70
2022-10-07T04:02:48.970Z,2.90
2022-10-07T04:04:53.520Z,2.67
2022-10-07T04:06:58.254Z,2.50
2022-10-07T04:09:03.493Z,2.03
2022-10-07T04:11:09.587Z,2.60
2022-10-07T04:13:15.724Z,2.90
2022-10-07T04:15:19.309Z,3.00
2022-10-07T04:17:23.615Z,3.40
2022-10-07T04:19:27.866Z,3.07
2022-10-07T04:21:30.916Z,3.03
2022-10-07T04:23:34.707Z,3.27
2022-10-07T04:25:43.854Z,2.87
2022-10-07T04:27:53.880Z,3.43
2022-10-07T04:29:58.707Z,2.97
2022-10-07T04:32:01.617Z,2.50
2022-10-07T04:34:04.635Z,2.50
2022-10-07T04:36:13.065Z,2.40
2022-10-07T04:38:28.583Z,3.97
2022-10-07T04:40:34.900Z,2.20
2022-10-07T04:42:56.711Z,2.60
2022-10-07T04:44:59.859Z,3.07
2022-10-07T04:47:03.862Z,3.20
2022-10-07T04:49:07.375Z,2.50
2022-10-07T04:51:11.164Z,3.03
2022-10-07T04:53:17.526Z,2.60
2022-10-07T04:55:22.765Z,2.80
2022-10-07T04:57:25.819Z,2.37
2022-10-07T04:59:31.610Z,3.50
2022-10-07T05:01:35.452Z,3.20
2022-10-07T05:03:39.813Z,2.50
2022-10-07T05:05:44.362Z,2.47
2022-10-07T05:07:51.088Z,3.30
2022-10-07T05:09:55.300Z,3.00
2022-10-07T05:11:58.208Z,2.70
2022-10-07T05:14:02.230Z,3.37
2022-10-07T05:16:12.322Z,2.70
2022-10-07T05:18:16.356Z,2.83
2022-10-07T05:20:19.344Z,2.63
2022-10-07T05:22:23.512Z,3.00
2022-10-07T05:24:26.705Z,3.07
2022-10-07T05:26:29.639Z,2.27
2022-10-07T05:28:35.843Z,2.90
2022-10-07T05:30:38.960Z,2.73
2022-10-07T05:32:43.263Z,3.40
2022-10-07T05:34:46.312Z,3.03
2022-10-07T05:36:49.751Z,2.20
2022-10-07T05:38:54.535Z,2.80
2022-10-07T05:40:59.882Z,2.37
2022-10-07T05:43:04.516Z,4.20
2022-10-07T05:45:08.738Z,3.33
2022-10-07T05:47:11.769Z,2.37
2022-10-07T05:49:16.034Z,2.97
2022-10-07T05:51:20.156Z,2.50
2022-10-07T05:53:23.128Z,2.83
2022-10-07T05:55:26.276Z,3.47
2022-10-07T05:57:29.226Z,3.30
2022-10-07T05:59:32.243Z,3.40
2022-10-07T06:01:36.091Z,2.87
2022-10-07T06:03:45.836Z,3.03
2022-10-07T06:05:51.509Z,2.80
2022-10-07T06:07:54.463Z,2.87
2022-10-07T06:10:14.768Z,2.43
2022-10-07T06:12:35.451Z,2.77
2022-10-07T06:14:43.159Z,2.53
2022-10-07T06:16:46.353Z,2.90
2022-10-07T06:18:50.644Z,3.03
2022-10-07T06:20:56.701Z,3.00
2022-10-07T06:23:01.144Z,2.67
2022-10-07T06:25:08.096Z,1.87
2022-10-07T06:27:10.942Z,3.43
2022-10-07T06:29:14.201Z,2.80
2022-10-07T06:31:22.274Z,3.00
2022-10-07T06:33:25.422Z,3.87
2022-10-07T06:35:28.560Z,3.43
2022-10-07T06:37:33.788Z,3.13
2022-10-07T06:39:38.494Z,2.80
2022-10-07T06:41:42.719Z,2.80
2022-10-07T06:44:01.316Z,2.30
2022-10-07T06:46:09.471Z,2.47
2022-10-07T06:48:15.181Z,2.27
2022-10-07T06:50:18.153Z,3.07
2022-10-07T06:52:21.122Z,6.30
2022-10-07T06:54:25.557Z,3.60
2022-10-07T06:56:28.991Z,2.73
2022-10-07T06:58:33.661Z,2.73
2022-10-07T07:00:38.938Z,2.43
2022-10-07T07:02:41.885Z,2.90
2022-10-07T07:04:44.885Z,2.77
2022-10-07T07:06:47.882Z,3.40
2022-10-07T07:08:51.448Z,2.97
2022-10-07T07:10:56.452Z,2.40
2022-10-07T07:15:05.129Z,2.70
2022-10-07T07:17:08.466Z,2.55
2022-10-07T07:19:13.958Z,2.10
2022-10-07T07:21:18.031Z,3.00
2022-10-07T07:23:21.049Z,2.33
2022-10-07T07:25:24.055Z,2.10
2022-10-07T07:27:28.439Z,2.92
2022-10-07T07:29:32.121Z,3.63
2022-10-07T07:31:37.978Z,2.45
2022-10-07T07:33:41.628Z,2.10
2022-10-07T07:35:45.284Z,2.33
2022-10-07T07:38:15.953Z,2.53
2022-10-07T07:40:19.436Z,2.70
2022-10-07T07:42:22.888Z,2.88
2022-10-07T07:44:31.267Z,3.25
2022-10-07T07:46:39.792Z,3.45
2022-10-07T07:48:43.156Z,2.80
2022-10-07T07:50:46.200Z,3.08
2022-10-07T07:52:51.887Z,2.65
2022-10-07T07:54:59.311Z,2.78
2022-10-07T07:57:03.009Z,2.30
2022-10-07T07:59:08.119Z,3.67
2022-10-07T08:01:14.777Z,2.60
2022-10-07T08:03:19.194Z,2.75
2022-10-07T08:05:24.097Z,2.97
2022-10-07T08:07:30.234Z,2.72
2022-10-07T08:09:33.194Z,2.45
2022-10-07T08:11:36.415Z,3.10
2022-10-07T08:13:41.379Z,3.50
2022-10-07T08:15:46.238Z,2.42
2022-10-07T08:17:50.694Z,2.97
2022-10-07T08:19:56.233Z,3.25
2022-10-07T08:22:00.149Z,2.47
2022-10-07T08:24:09.778Z,2.55
2022-10-07T08:26:14.995Z,2.60
2022-10-07T08:28:18.688Z,2.33
2022-10-07T08:30:21.725Z,3.03
2022-10-07T08:32:25.243Z,2.83
2022-10-07T08:34:29.801Z,3.50
2022-10-07T08:36:33.753Z,2.42
2022-10-07T08:38:39.269Z,2.85
2022-10-07T08:40:48.112Z,2.88
2022-10-07T08:42:50.996Z,3.00
2022-10-07T08:44:54.353Z,2.80
2022-10-07T08:47:01.591Z,3.22
2022-10-07T08:49:06.696Z,2.83
2022-10-07T08:51:19.922Z,3.50
2022-10-07T08:53:29.573Z,2.85
2022-10-07T08:55:37.800Z,3.17
2022-10-07T08:57:56.979Z,3.90
2022-10-07T09:00:02.809Z,2.67
2022-10-07T09:02:18.949Z,2.47
2022-10-07T09:04:30.297Z,2.83
2022-10-07T09:06:38.651Z,3.03
2022-10-07T09:08:44.485Z,3.10
2022-10-07T09:10:49.976Z,2.35
2022-10-07T09:12:58.111Z,2.92
2022-10-07T09:15:03.676Z,2.95
2022-10-07T09:17:10.808Z,2.80
2022-10-07T09:19:18.638Z,2.83
2022-10-07T09:21:25.529Z,2.53
2022-10-07T09:23:33.509Z,2.58
2022-10-07T09:25:36.900Z,2.00
2022-10-07T09:27:39.906Z,2.97
2022-10-07T09:29:43.417Z,2.90
2022-10-07T09:31:46.390Z,2.42
2022-10-07T09:33:52.939Z,3.05
2022-10-07T09:35:57.919Z,3.25
2022-10-07T09:38:10.321Z,2.35
2022-10-07T09:40:30.490Z,2.47
2022-10-07T09:42:36.817Z,2.22
2022-10-07T09:44:40.220Z,3.15
2022-10-07T09:46:47.196Z,2.42
2022-10-07T09:48:53.496Z,2.80
2022-10-07T09:51:13.065Z,2.28
2022-10-07T09:53:19.918Z,2.95
2022-10-07T09:55:32.715Z,2.75
2022-10-07T09:57:36.966Z,3.42
2022-10-07T09:59:40.249Z,2.42
2022-10-07T10:01:43.449Z,2.45
2022-10-07T10:03:46.515Z,2.72
2022-10-07T10:05:55.009Z,3.38
2022-10-07T10:08:00.366Z,2.65
2022-10-07T10:10:15.415Z,3.25
2022-10-07T10:12:20.975Z,2.97
2022-10-07T10:14:37.267Z,2.13
2022-10-07T10:16:41.076Z,2.30
2022-10-07T10:18:55.010Z,2.30
2022-10-07T10:20:58.010Z,3.00
2022-10-07T10:23:02.557Z,2.70
2022-10-07T10:25:27.016Z,3.20
2022-10-07T10:27:36.375Z,2.50
2022-10-07T10:29:44.508Z,2.75
2022-10-07T10:32:03.059Z,2.60
2022-10-07T10:34:13.861Z,2.42
2022-10-07T10:36:20.914Z,3.00
2022-10-07T10:38:35.526Z,2.83
2022-10-07T10:40:41.537Z,3.10
2022-10-07T10:42:54.165Z,2.55
2022-10-07T10:45:08.410Z,2.70
2022-10-07T10:47:18.754Z,2.80
2022-10-07T10:49:27.314Z,2.20
2022-10-07T10:51:44.287Z,2.80
2022-10-07T10:53:52.026Z,3.35
2022-10-07T10:56:28.685Z,2.40
2022-10-07T10:58:42.924Z,2.20
2022-10-07T11:00:59.537Z,2.88
2022-10-07T11:03:28.073Z,2.90
2022-10-07T11:05:33.226Z,3.03
2022-10-07T11:07:38.270Z,2.08
2022-10-07T11:09:45.076Z,3.22
2022-10-07T11:11:50.354Z,2.30
2022-10-07T11:13:59.568Z,3.10
2022-10-07T11:16:08.984Z,2.20
2022-10-07T11:18:15.205Z,3.33
2022-10-07T11:20:25.180Z,2.95
2022-10-07T11:22:33.293Z,3.00
2022-10-07T11:24:40.726Z,3.10
2022-10-07T11:26:46.238Z,3.17
2022-10-07T11:28:51.507Z,2.45
2022-10-07T11:31:01.112Z,2.78
2022-10-07T11:33:09.489Z,2.78
2022-10-07T11:35:23.338Z,3.05
2022-10-07T11:37:30.640Z,2.90
2022-10-07T11:39:33.552Z,3.42
2022-10-07T11:41:46.642Z,3.10
2022-10-07T11:43:56.924Z,3.00
2022-10-07T11:46:11.193Z,2.90
2022-10-07T11:48:19.602Z,3.20
2022-10-07T11:50:25.422Z,3.50
2022-10-07T11:52:35.911Z,3.35
2022-10-07T11:54:44.661Z,2.92
2022-10-07T11:56:51.497Z,3.08
2022-10-07T11:59:02.614Z,3.08
2022-10-07T12:01:46.825Z,3.22
2022-10-07T12:03:51.826Z,3.40
2022-10-07T12:05:59.378Z,2.83
2022-10-07T12:08:03.962Z,3.17
2022-10-07T12:10:23.281Z,2.80
2022-10-07T12:12:26.311Z,3.13
2022-10-07T12:14:36.451Z,3.13
2022-10-07T12:16:43.885Z,2.45
2022-10-07T12:19:22.987Z,3.33
2022-10-07T12:21:26.318Z,2.42
2022-10-07T12:23:40.809Z,3.63
2022-10-07T12:25:58.844Z,2.90
2022-10-07T12:28:02.509Z,2.90
2022-10-07T12:30:07.118Z,2.25
2022-10-07T12:32:43.777Z,2.40
2022-10-07T12:34:48.418Z,2.47
2022-10-07T12:36:51.685Z,2.80
2022-10-07T12:39:32.515Z,2.55
2022-10-07T12:41:44.112Z,3.13
2022-10-07T12:44:01.105Z,2.70
2022-10-07T12:46:10.350Z,3.05
2022-10-07T12:48:17.678Z,2.88
2022-10-07T12:50:22.643Z,3.30
2022-10-07T12:52:35.073Z,2.95
2022-10-07T12:54:43.696Z,3.75
2022-10-07T12:56:47.017Z,2.65
2022-10-07T12:59:19.415Z,3.10
2022-10-07T13:01:31.070Z,3.28
2022-10-07T13:03:57.231Z,2.45
2022-10-07T13:06:32.650Z,3.05
2022-10-07T13:09:02.681Z,3.67
2022-10-07T13:11:48.010Z,2.55
2022-10-07T13:13:55.355Z,2.90
2022-10-07T13:16:00.593Z,3.00
2022-10-07T13:18:10.646Z,3.00
2022-10-07T13:20:27.185Z,2.92
2022-10-07T13:22:31.870Z,3.03
2022-10-07T13:24:35.491Z,3.00
2022-10-07T13:26:38.554Z,2.95
2022-10-07T13:28:47.580Z,3.00
2022-10-07T13:30:51.917Z,2.63
2022-10-07T13:32:54.924Z,2.28
2022-10-07T13:34:58.750Z,3.00
2022-10-07T13:37:02.347Z,3.30
2022-10-07T13:39:23.818Z,3.17
2022-10-07T13:41:28.342Z,3.00
2022-10-07T13:43:32.991Z,3.08
2022-10-07T13:45:41.112Z,3.22
2022-10-07T13:47:46.911Z,3.22
2022-10-07T13:49:51.105Z,3.03
2022-10-07T13:51:56.394Z,2.10
2022-10-07T13:54:01.342Z,3.28
2022-10-07T13:56:21.759Z,3.35
2022-10-07T13:58:24.819Z,3.53
2022-10-07T14:00:28.430Z,3.25
2022-10-07T14:02:33.399Z,3.38
2022-10-07T14:04:58.628Z,2.42
2022-10-07T14:07:04.278Z,2.70
2022-10-07T14:09:18.543Z,3.10
2022-10-07T14:11:23.377Z,3.00
2022-10-07T14:13:29.141Z,2.85
2022-10-07T14:15:35.184Z,3.72
2022-10-07T14:17:41.961Z,4.22
2022-10-07T14:19:44.983Z,2.78
2022-10-07T14:21:49.323Z,2.70
2022-10-07T14:23:52.415Z,2.78
2022-10-07T14:25:57.740Z,2.95
2022-10-07T14:28:18.610Z,2.60
2022-10-07T14:30:55.623Z,2.67
2022-10-07T14:33:24.836Z,2.90
2022-10-07T14:35:27.412Z,2.85
2022-10-07T14:37:32.142Z,2.35
2022-10-07T14:39:37.119Z,2.90
2022-10-07T14:41:41.074Z,2.83
2022-10-07T14:43:47.595Z,3.17
2022-10-07T14:45:50.602Z,2.83
2022-10-07T14:47:53.886Z,3.15
2022-10-07T14:49:58.169Z,3.63
2022-10-07T14:52:02.101Z,2.40
2022-10-07T14:54:06.698Z,2.53
2022-10-07T14:56:13.128Z,3.03
2022-10-07T14:58:16.236Z,3.55
2022-10-07T15:00:22.474Z,2.97
2022-10-07T15:02:25.320Z,3.22
2022-10-07T15:04:28.231Z,2.10
2022-10-07T15:06:31.148Z,2.60
2022-10-07T15:08:34.130Z,2.28
2022-10-07T15:10:37.051Z,2.63
2022-10-07T15:12:39.895Z,2.83
2022-10-07T15:14:43.179Z,2.63
2022-10-07T15:16:47.592Z,2.75
2022-10-07T15:18:53.053Z,2.15
2022-10-07T15:20:57.367Z,2.92
2022-10-07T15:23:00.477Z,2.67
2022-10-07T15:25:04.438Z,3.78
2022-10-07T15:27:09.801Z,3.03
2022-10-07T15:29:13.348Z,3.75
2022-10-07T15:31:17.666Z,3.30
2022-10-07T15:33:22.155Z,3.75
2022-10-07T15:35:27.073Z,3.67
2022-10-07T15:37:30.233Z,2.60
2022-10-07T15:39:37.453Z,3.05
2022-10-07T15:41:44.269Z,2.72
2022-10-07T15:43:47.156Z,3.15
2022-10-07T15:45:51.339Z,2.88
2022-10-07T15:47:59.552Z,3.05
2022-10-07T15:50:07.893Z,2.83
2022-10-07T15:52:11.751Z,3.40
2022-10-07T15:54:14.888Z,3.10
2022-10-07T15:56:17.834Z,2.55
2022-10-07T15:58:21.285Z,3.55
2022-10-07T16:00:24.273Z,3.10
2022-10-07T16:02:27.511Z,3.15
2022-10-07T16:04:30.524Z,3.33
2022-10-07T16:06:37.025Z,3.50
2022-10-07T16:08:40.055Z,3.03
2022-10-07T16:10:43.024Z,3.00
2022-10-07T16:12:46.159Z,3.67
2022-10-07T16:14:50.454Z,3.80
2022-10-07T16:16:53.464Z,3.10
2022-10-07T16:18:59.051Z,3.13
2022-10-07T16:21:07.361Z,3.63
2022-10-07T16:23:11.692Z,3.45
2022-10-07T16:25:15.094Z,3.42
2022-10-07T16:27:18.189Z,3.50
2022-10-07T16:29:39.709Z,3.85
2022-10-07T16:31:44.298Z,3.85
2022-10-07T16:33:52.019Z,2.90
2022-10-07T16:35:55.107Z,3.55
2022-10-07T16:37:58.150Z,3.05
2022-10-07T16:40:03.197Z,3.00
2022-10-07T16:42:06.392Z,3.00
2022-10-07T16:44:09.789Z,3.42
2022-10-07T16:46:18.471Z,3.67
2022-10-07T16:48:21.773Z,3.67
2022-10-07T16:50:27.556Z,3.45
2022-10-07T16:52:30.522Z,2.92
2022-10-07T16:54:35.533Z,3.13
2022-10-07T16:56:41.554Z,3.17
2022-10-07T16:58:44.903Z,3.80
2022-10-07T17:00:47.908Z,4.47
2022-10-07T17:02:51.247Z,4.45
2022-10-07T17:04:54.232Z,3.08
2022-10-07T17:06:57.840Z,3.53
2022-10-07T17:09:03.240Z,3.08
2022-10-07T17:11:14.170Z,4.75
2022-10-07T17:13:18.618Z,3.35
2022-10-07T17:15:21.551Z,3.38
2022-10-07T17:17:25.783Z,4.03
2022-10-07T17:19:30.004Z,3.75
2022-10-07T17:21:33.334Z,4.10
2022-10-07T17:23:36.418Z,3.53
2022-10-07T17:25:40.319Z,3.97
2022-10-07T17:27:43.263Z,3.42
2022-10-07T17:29:47.673Z,2.85
2022-10-07T17:31:51.245Z,3.90
2022-10-07T17:33:54.286Z,3.67
2022-10-07T17:36:06.934Z,3.53
2022-10-07T17:38:10.902Z,3.70
2022-10-07T17:40:13.884Z,3.50
2022-10-07T17:42:16.873Z,4.50
2022-10-07T17:44:21.425Z,5.40
2022-10-07T17:46:26.821Z,7.65
2022-10-07T17:48:30.215Z,10.25
2022-10-07T17:50:35.291Z,5.25
2022-10-07T17:52:38.218Z,5.22
2022-10-07T17:54:41.139Z,5.10
2022-10-07T17:56:47.695Z,4.93
2022-10-07T17:58:51.566Z,4.60
2022-10-07T18:00:59.422Z,5.03
2022-10-07T18:03:04.815Z,4.13
2022-10-07T18:05:08.682Z,4.50
2022-10-07T18:07:11.900Z,4.78
2022-10-07T18:09:18.470Z,4.25
2022-10-07T18:11:21.521Z,4.07
2022-10-07T18:13:42.149Z,3.88
2022-10-07T18:15:44.110Z,4.70
2022-10-07T18:17:47.876Z,5.57
2022-10-07T18:19:52.377Z,5.90
2022-10-07T18:21:56.436Z,4.30
2022-10-07T18:23:59.567Z,4.07
2022-10-07T18:26:13.535Z,4.72
2022-10-07T18:28:16.717Z,4.70
2022-10-07T18:30:21.352Z,4.53
2022-10-07T18:32:25.450Z,4.13
2022-10-07T18:34:28.832Z,4.15
2022-10-07T18:36:33.162Z,5.22
2022-10-07T18:38:40.642Z,5.63
2022-10-07T18:40:43.931Z,4.75
2022-10-07T18:42:46.813Z,4.20
2022-10-07T18:44:52.246Z,4.47
2022-10-07T18:46:55.188Z,4.43
2022-10-07T18:48:58.418Z,2.90
2022-10-07T18:51:01.461Z,3.37
2022-10-07T18:53:06.817Z,3.63
2022-10-07T18:55:10.336Z,4.20
2022-10-07T18:57:13.258Z,3.07
2022-10-07T18:59:16.372Z,4.10
2022-10-07T19:01:20.828Z,4.13
2022-10-07T19:03:23.842Z,3.30
2022-10-07T19:05:30.389Z,4.40
2022-10-07T19:07:35.838Z,4.23
2022-10-07T19:09:40.089Z,4.70
2022-10-07T19:11:43.462Z,4.13
2022-10-07T19:13:48.341Z,4.67
2022-10-07T19:15:51.883Z,3.23
2022-10-07T19:17:54.714Z,3.87
2022-10-07T19:20:01.483Z,3.87
2022-10-07T19:22:04.742Z,4.40
2022-10-07T19:24:08.353Z,4.30
2022-10-07T19:26:14.194Z,4.77
2022-10-07T19:28:18.589Z,4.40
2022-10-07T19:30:21.615Z,4.70
2022-10-07T19:32:24.743Z,4.77
2022-10-07T19:34:28.975Z,4.60
2022-10-07T19:36:33.770Z,4.60
2022-10-07T19:38:39.949Z,4.30
2022-10-07T19:40:44.309Z,3.70
2022-10-07T19:42:48.610Z,4.10
2022-10-07T19:44:52.343Z,3.83
2022-10-07T19:46:55.350Z,4.00
2022-10-07T19:49:02.445Z,3.80
2022-10-07T19:51:09.561Z,3.73
2022-10-07T19:53:15.764Z,3.60
2022-10-07T19:55:18.904Z,4.17
2022-10-07T19:57:22.508Z,3.50
2022-10-07T19:59:27.014Z,3.40
2022-10-07T20:01:32.217Z,4.10
2022-10-07T20:03:36.009Z,4.37
2022-10-07T20:05:42.121Z,3.50
2022-10-07T20:07:45.611Z,4.17
2022-10-07T20:09:49.266Z,4.17
2022-10-07T20:11:52.957Z,3.27
2022-10-07T20:13:55.884Z,6.00
2022-10-07T20:16:07.921Z,4.20
2022-10-07T20:18:10.971Z,4.67
2022-10-07T20:20:14.931Z,4.00
2022-10-07T20:22:18.019Z,5.10
2022-10-07T20:24:21.036Z,4.90
2022-10-07T20:26:25.533Z,4.13
2022-10-07T20:28:31.175Z,4.20
2022-10-07T20:30:37.786Z,4.50
2022-10-07T20:32:43.608Z,4.30
2022-10-07T20:34:50.210Z,3.70
2022-10-07T20:36:54.871Z,3.93
2022-10-07T20:39:15.906Z,4.43
2022-10-07T20:41:41.487Z,3.77
2022-10-07T20:43:45.009Z,3.67
2022-10-07T20:45:59.788Z,3.20
2022-10-07T20:48:05.169Z,3.40
2022-10-07T20:50:08.984Z,3.30
2022-10-07T20:52:16.679Z,4.20
2022-10-07T20:54:20.115Z,3.43
2022-10-07T20:56:23.088Z,3.23
2022-10-07T20:58:26.207Z,4.20
2022-10-07T21:00:29.185Z,3.60
2022-10-07T21:02:33.214Z,4.27
2022-10-07T21:04:38.363Z,3.23
2022-10-07T21:06:41.378Z,3.57
2022-10-07T21:08:45.095Z,3.87
2022-10-07T21:10:47.981Z,3.03
2022-10-07T21:12:50.930Z,2.73
2022-10-07T21:14:55.709Z,4.03
2022-10-07T21:17:00.102Z,2.97
2022-10-07T21:19:03.277Z,3.50
2022-10-07T21:21:11.714Z,3.90
2022-10-07T21:23:14.697Z,3.97
2022-10-07T21:25:18.240Z,3.93
2022-10-07T21:27:21.113Z,3.10
2022-10-07T21:29:24.241Z,3.43
2022-10-07T21:31:27.210Z,3.53
2022-10-07T21:33:33.127Z,3.80
2022-10-07T21:35:36.344Z,3.33
2022-10-07T21:37:40.988Z,3.67
2022-10-07T21:39:43.935Z,3.27
2022-10-07T21:41:48.122Z,3.13
2022-10-07T21:43:52.450Z,5.50
2022-10-07T21:45:59.117Z,4.63
2022-10-07T21:48:02.272Z,4.10
2022-10-07T21:50:06.117Z,3.97
2022-10-07T21:52:09.000Z,3.30
2022-10-07T21:54:15.459Z,3.80
2022-10-07T21:56:19.123Z,3.83
2022-10-07T21:58:24.742Z,4.27
2022-10-07T22:00:27.770Z,3.53
2022-10-07T22:02:30.859Z,3.30
2022-10-07T22:04:33.932Z,3.60
2022-10-07T22:06:54.423Z,2.90
2022-10-07T22:08:57.516Z,4.00
2022-10-07T22:11:02.792Z,3.00
2022-10-07T22:13:05.714Z,3.60
2022-10-07T22:15:12.696Z,3.47
2022-10-07T22:17:15.683Z,3.30
2022-10-07T22:19:19.078Z,4.13
2022-10-07T22:21:24.173Z,4.00
2022-10-07T22:23:27.393Z,3.93
2022-10-07T22:25:31.478Z,3.30
2022-10-07T22:27:36.143Z,3.27
2022-10-07T22:29:39.258Z,4.10
2022-10-07T22:31:42.373Z,3.37
2022-10-07T22:33:46.346Z,2.90
2022-10-07T22:35:48.337Z,3.57
2022-10-07T22:37:51.336Z,3.83
2022-10-07T22:39:54.414Z,3.10
2022-10-07T22:41:57.403Z,2.77
2022-10-07T22:44:01.796Z,4.07
2022-10-07T22:46:07.782Z,3.30
2022-10-07T22:48:10.965Z,3.13
2022-10-07T22:50:16.051Z,3.03
2022-10-07T22:52:18.913Z,3.77
2022-10-07T22:54:22.600Z,3.47
2022-10-07T22:56:28.589Z,3.50
2022-10-07T22:58:31.496Z,3.60
2022-10-07T23:00:36.195Z,4.50
2022-10-07T23:02:39.237Z,3.70
2022-10-07T23:04:42.310Z,3.50
2022-10-07T23:06:45.428Z,3.80
2022-10-07T23:08:49.287Z,3.30
2022-10-07T23:10:56.862Z,3.60
2022-10-07T23:13:03.498Z,3.17
2022-10-07T23:15:07.242Z,3.00
2022-10-07T23:17:12.103Z,3.87
2022-10-07T23:19:15.025Z,3.70
2022-10-07T23:21:19.544Z,3.50
2022-10-07T23:23:22.714Z,3.23
2022-10-07T23:25:26.319Z,3.00
2022-10-07T23:27:29.189Z,2.90
2022-10-07T23:29:32.862Z,3.77
2022-10-07T23:31:36.016Z,3.30
2022-10-07T23:33:40.553Z,3.33
2022-10-07T23:35:44.000Z,3.13
2022-10-07T23:37:47.064Z,3.67
2022-10-07T23:39:51.325Z,3.83
2022-10-07T23:41:54.947Z,3.60
2022-10-07T23:43:59.719Z,4.93
2022-10-07T23:46:06.342Z,3.37
2022-10-07T23:48:09.667Z,3.13
2022-10-07T23:50:14.829Z,3.20
2022-10-07T23:52:17.801Z,3.53
2022-10-07T23:54:20.787Z,2.67
2022-10-07T23:56:23.861Z,3.00
2022-10-07T23:58:30.178Z,3.43
